Olympic Valley, CA (96146)

5:21 PM PST on December 24, 2014 (GMT -0800)
Squaw Valley USA | Change Station
CLOSE
Current Station
Personal Weather Station
Location: Olympic Valley, CA
Elevation: 6529 ft
Nearby Weather Stations
Active Advisory: Winter Weather Advisory Active Notice: Record Report

Elev 6529 ft 39.20 °N, 120.23 °W | Updated 11 minutes ago

Snow
Snow
31.1 °F
Feels Like 31 °F
N
0.0
Wind Variable Wind from SW
Gusts 19.0 mph

Today
High -- | Low -- °F
--% Chance of Precip.
Yesterday
High -- | Low -- °F
Precip. -- in
7:18 AM 4:43 PM
Waxing Crescent, 12% visible
Pressure 29.78 in
Visibility 2.0 miles
Clouds Scattered Clouds 500 ft
Mostly Cloudy 1200 ft
Windchill 31 °F
Dew Point 29 °F
Humidity 91%
Rainfall 0.07 in
Snow Depth Not available.
UV 0 out of 12
Pollen 3.80 out of 12
Air Quality Not available.
Flu Activity Not available.
METAR KTRK 250055Z 29023G31KT 2SM SN SCT005 BKN012 01/M02 A2978 RMK NOSPECI LAST

More Conditions Fewer Conditions

Pressure 29.78 in
Visibility 2.0 miles
Clouds Scattered Clouds 500 ft
Mostly Cloudy 1200 ft
Windchill 31 °F
Dew Point 29 °F
Humidity 91%
Rainfall 0.07 in
Snow Depth Not available.
UV 0 out of 12
Pollen 3.80 out of 12
Air Quality Not available.
Flu Activity Not available.
METAR KTRK 250055Z 29023G31KT 2SM SN SCT005 BKN012 01/M02 A2978 RMK NOSPECI LAST

More Conditions Fewer Conditions

10-Day Weather Forecast

Almanac

Astronomy

Dec. 24, 2014 Rise Set
Actual Time
Civil Twilight
Nautical Twilight
Astronomical Twilight
Moon
Length of Visible Light
Length of Day
Tomorrow will be .
, % of the Moon is Illuminated

Today's Extremes

State Highs State Lows

Community

WunderPhotos

Upload Photos

1,780,203 photos uploaded!

WunderBlogs® & News

Nearby

Air Quality

  Air Quality AQ Index Pollutant
Not available.

Snow Depth

Station Depth Elevation

Earthquake Activity

City Distance Mag. Time & Date
Minimum magnitude displayed is 2.5.

Coastal Water Temperatures

Place Temperature

Nearby Weather Stations